sensor_id;sensor_type;location;lat;lon;timestamp;pressure;altitude;pressure_sealevel;temperature;humidity
56944;BME280;42848;42.524;12.052;2023-02-10T00:02:25;98102.66;;;-0.30;100.00
56944;BME280;42848;42.524;12.052;2023-02-10T00:04:51;98105.56;;;-0.38;100.00
56944;BME280;42848;42.524;12.052;2023-02-10T00:07:17;98107.66;;;-0.40;100.00
56944;BME280;42848;42.524;12.052;2023-02-10T00:09:43;98103.34;;;-0.41;100.00
56944;BME280;42848;42.524;12.052;2023-02-10T00:12:09;98100.56;;;-0.28;100.00
56944;BME280;42848;42.524;12.052;2023-02-10T00:14:36;98089.16;;;-0.35;100.00
56944;BME280;42848;42.524;12.052;2023-02-10T00:17:03;98079.47;;;-0.61;100.00
56944;BME280;42848;42.524;12.052;2023-02-10T00:19:29;98095.16;;;-0.46;100.00
56944;BME280;42848;42.524;12.052;2023-02-10T00:21:56;98090.97;;;-0.60;100.00
56944;BME280;42848;42.524;12.052;2023-02-10T00:24:22;98098.75;;;-0.59;100.00
56944;BME280;42848;42.524;12.052;2023-02-10T00:26:49;98092.59;;;-0.59;100.00
56944;BME280;42848;42.524;12.052;2023-02-10T00:29:15;98091.78;;;-0.60;100.00
56944;BME280;42848;42.524;12.052;2023-02-10T00:31:41;98098.00;;;-0.72;100.00
56944;BME280;42848;42.524;12.052;2023-02-10T00:34:13;98102.47;;;-0.66;100.00
56944;BME280;42848;42.524;12.052;2023-02-10T00:36:39;98094.72;;;-0.74;100.00
56944;BME280;42848;42.524;12.052;2023-02-10T00:39:06;98100.06;;;-0.74;100.00
56944;BME280;42848;42.524;12.052;2023-02-10T00:41:32;98096.97;;;-0.71;100.00
56944;BME280;42848;42.524;12.052;2023-02-10T00:43:58;98095.50;;;-0.67;100.00
56944;BME280;42848;42.524;12.052;2023-02-10T00:46:24;98085.06;;;-0.69;100.00
56944;BME280;42848;42.524;12.052;2023-02-10T00:48:50;98093.09;;;-0.75;100.00
56944;BME280;42848;42.524;12.052;2023-02-10T00:51:17;98090.84;;;-0.78;100.00
56944;BME280;42848;42.524;12.052;2023-02-10T00:53:43;98094.31;;;-0.71;100.00
56944;BME280;42848;42.524;12.052;2023-02-10T00:56:09;98092.94;;;-0.80;100.00
56944;BME280;42848;42.524;12.052;2023-02-10T00:58:35;98102.56;;;-0.79;100.00
56944;BME280;42848;42.524;12.052;2023-02-10T01:01:02;98098.41;;;-0.75;100.00
56944;BME280;42848;42.524;12.052;2023-02-10T01:03:27;98096.78;;;-0.76;100.00
56944;BME280;42848;42.524;12.052;2023-02-10T01:05:53;98101.78;;;-0.87;100.00
56944;BME280;42848;42.524;12.052;2023-02-10T01:08:19;98098.50;;;-0.89;100.00
56944;BME280;42848;42.524;12.052;2023-02-10T01:10:45;98095.41;;;-0.86;100.00
56944;BME280;42848;42.524;12.052;2023-02-10T01:13:12;98091.69;;;-0.84;100.00
56944;BME280;42848;42.524;12.052;2023-02-10T01:15:43;98090.38;;;-1.00;100.00
56944;BME280;42848;42.524;12.052;2023-02-10T01:18:09;98075.56;;;-0.96;100.00
56944;BME280;42848;42.524;12.052;2023-02-10T01:20:38;98079.75;;;-0.75;100.00
56944;BME280;42848;42.524;12.052;2023-02-10T01:23:05;98085.03;;;-1.00;100.00
56944;BME280;42848;42.524;12.052;2023-02-10T01:25:32;98078.84;;;-0.94;100.00
56944;BME280;42848;42.524;12.052;2023-02-10T01:27:59;98089.56;;;-1.07;100.00
56944;BME280;42848;42.524;12.052;2023-02-10T01:30:25;98076.00;;;-0.99;100.00
56944;BME280;42848;42.524;12.052;2023-02-10T01:32:54;98072.56;;;-1.06;100.00
56944;BME280;42848;42.524;12.052;2023-02-10T01:35:20;98078.84;;;-1.01;100.00
56944;BME280;42848;42.524;12.052;2023-02-10T01:37:46;98068.63;;;-1.04;100.00
56944;BME280;42848;42.524;12.052;2023-02-10T01:40:12;98064.91;;;-0.96;100.00
56944;BME280;42848;42.524;12.052;2023-02-10T01:42:37;98071.53;;;-1.12;100.00
56944;BME280;42848;42.524;12.052;2023-02-10T01:45:22;98074.81;;;-1.10;100.00
56944;BME280;42848;42.524;12.052;2023-02-10T01:47:50;98071.97;;;-1.15;100.00
56944;BME280;42848;42.524;12.052;2023-02-10T01:50:19;98061.91;;;-1.13;100.00
56944;BME280;42848;42.524;12.052;2023-02-10T01:52:45;98062.16;;;-1.21;100.00
56944;BME280;42848;42.524;12.052;2023-02-10T01:55:15;98054.53;;;-1.11;100.00
56944;BME280;42848;42.524;12.052;2023-02-10T01:57:43;98062.75;;;-1.19;100.00
56944;BME280;42848;42.524;12.052;2023-02-10T02:00:09;98040.38;;;-1.11;100.00
56944;BME280;42848;42.524;12.052;2023-02-10T02:02:35;98041.59;;;-1.07;100.00
56944;BME280;42848;42.524;12.052;2023-02-10T02:05:19;98037.09;;;-1.07;100.00
56944;BME280;42848;42.524;12.052;2023-02-10T02:07:45;98020.31;;;-1.14;100.00
56944;BME280;42848;42.524;12.052;2023-02-10T02:10:13;98029.72;;;-1.11;100.00
56944;BME280;42848;42.524;12.052;2023-02-10T02:13:04;98026.44;;;-1.07;100.00
56944;BME280;42848;42.524;12.052;2023-02-10T02:15:51;98024.81;;;-1.08;100.00
56944;BME280;42848;42.524;12.052;2023-02-10T02:18:53;98024.63;;;-1.13;100.00
56944;BME280;42848;42.524;12.052;2023-02-10T02:21:32;98031.41;;;-1.17;100.00
56944;BME280;42848;42.524;12.052;2023-02-10T02:24:31;98030.97;;;-1.14;100.00
56944;BME280;42848;42.524;12.052;2023-02-10T02:27:06;98039.16;;;-1.09;100.00
56944;BME280;42848;42.524;12.052;2023-02-10T02:32:53;98038.78;;;-1.19;100.00
56944;BME280;42848;42.524;12.052;2023-02-10T02:35:36;98041.66;;;-1.21;100.00
56944;BME280;42848;42.524;12.052;2023-02-10T02:38:04;98040.00;;;-1.15;100.00
56944;BME280;42848;42.524;12.052;2023-02-10T02:40:30;98036.31;;;-1.14;100.00
56944;BME280;42848;42.524;12.052;2023-02-10T02:42:58;98060.31;;;-1.21;100.00
56944;BME280;42848;42.524;12.052;2023-02-10T02:51:26;98041.28;;;-1.24;100.00
56944;BME280;42848;42.524;12.052;2023-02-10T02:54:17;98044.16;;;-1.26;100.00
56944;BME280;42848;42.524;12.052;2023-02-10T02:56:55;98043.75;;;-1.29;100.00
56944;BME280;42848;42.524;12.052;2023-02-10T03:02:01;98034.25;;;-1.12;100.00
56944;BME280;42848;42.524;12.052;2023-02-10T03:04:31;98028.13;;;-1.19;100.00
56944;BME280;42848;42.524;12.052;2023-02-10T03:06:59;98022.16;;;-1.15;100.00
56944;BME280;42848;42.524;12.052;2023-02-10T03:09:26;98015.34;;;-1.04;100.00
56944;BME280;42848;42.524;12.052;2023-02-10T03:11:52;98020.66;;;-1.04;100.00
56944;BME280;42848;42.524;12.052;2023-02-10T03:14:18;98008.88;;;-1.21;100.00
56944;BME280;42848;42.524;12.052;2023-02-10T03:16:43;98006.41;;;-1.16;100.00
56944;BME280;42848;42.524;12.052;2023-02-10T03:19:10;98007.09;;;-1.27;100.00
56944;BME280;42848;42.524;12.052;2023-02-10T03:21:36;97997.44;;;-1.28;100.00
56944;BME280;42848;42.524;12.052;2023-02-10T03:24:02;97994.75;;;-1.28;100.00
56944;BME280;42848;42.524;12.052;2023-02-10T03:26:28;98001.69;;;-1.21;100.00
56944;BME280;42848;42.524;12.052;2023-02-10T03:28:54;97992.47;;;-1.18;100.00
56944;BME280;42848;42.524;12.052;2023-02-10T03:31:20;98005.25;;;-1.33;100.00
56944;BME280;42848;42.524;12.052;2023-02-10T03:33:46;97999.47;;;-1.24;100.00
56944;BME280;42848;42.524;12.052;2023-02-10T03:36:12;97986.81;;;-1.35;100.00
56944;BME280;42848;42.524;12.052;2023-02-10T03:38:37;97991.50;;;-1.30;100.00
56944;BME280;42848;42.524;12.052;2023-02-10T03:41:03;97993.56;;;-1.32;100.00
56944;BME280;42848;42.524;12.052;2023-02-10T03:43:29;97995.78;;;-1.29;100.00
56944;BME280;42848;42.524;12.052;2023-02-10T03:45:55;98000.19;;;-1.10;100.00
56944;BME280;42848;42.524;12.052;2023-02-10T03:48:20;98008.72;;;-1.26;100.00
56944;BME280;42848;42.524;12.052;2023-02-10T03:50:47;98005.41;;;-1.28;100.00
56944;BME280;42848;42.524;12.052;2023-02-10T03:53:13;98003.13;;;-1.18;100.00
56944;BME280;42848;42.524;12.052;2023-02-10T03:55:39;98003.72;;;-1.16;100.00
56944;BME280;42848;42.524;12.052;2023-02-10T03:58:05;97996.56;;;-1.16;100.00
56944;BME280;42848;42.524;12.052;2023-02-10T04:00:31;97996.16;;;-1.19;100.00
56944;BME280;42848;42.524;12.052;2023-02-10T04:02:56;97996.59;;;-1.22;100.00
56944;BME280;42848;42.524;12.052;2023-02-10T04:05:22;98001.91;;;-1.22;100.00
56944;BME280;42848;42.524;12.052;2023-02-10T04:07:48;97994.53;;;-1.20;100.00
56944;BME280;42848;42.524;12.052;2023-02-10T04:10:13;97996.44;;;-1.34;100.00
56944;BME280;42848;42.524;12.052;2023-02-10T04:12:39;98000.75;;;-1.33;100.00
56944;BME280;42848;42.524;12.052;2023-02-10T04:15:05;98001.56;;;-1.32;100.00
56944;BME280;42848;42.524;12.052;2023-02-10T04:17:31;98005.47;;;-1.35;100.00
56944;BME280;42848;42.524;12.052;2023-02-10T04:19:57;97999.53;;;-1.37;100.00
56944;BME280;42848;42.524;12.052;2023-02-10T04:22:23;98015.72;;;-1.38;100.00
56944;BME280;42848;42.524;12.052;2023-02-10T04:24:48;98014.50;;;-1.42;100.00
56944;BME280;42848;42.524;12.052;2023-02-10T04:27:14;98014.94;;;-1.46;100.00
56944;BME280;42848;42.524;12.052;2023-02-10T04:29:40;98016.59;;;-1.45;100.00
56944;BME280;42848;42.524;12.052;2023-02-10T04:32:07;98021.09;;;-1.52;100.00
56944;BME280;42848;42.524;12.052;2023-02-10T04:34:33;98024.16;;;-1.48;100.00
56944;BME280;42848;42.524;12.052;2023-02-10T04:36:59;98032.72;;;-1.33;100.00
56944;BME280;42848;42.524;12.052;2023-02-10T04:39:25;98024.13;;;-1.41;100.00
56944;BME280;42848;42.524;12.052;2023-02-10T04:41:50;98019.66;;;-1.48;100.00
56944;BME280;42848;42.524;12.052;2023-02-10T04:44:16;98019.25;;;-1.45;100.00
56944;BME280;42848;42.524;12.052;2023-02-10T04:46:42;98028.28;;;-1.59;100.00
56944;BME280;42848;42.524;12.052;2023-02-10T04:49:07;98029.69;;;-1.50;100.00
56944;BME280;42848;42.524;12.052;2023-02-10T04:51:33;98030.28;;;-1.48;100.00
56944;BME280;42848;42.524;12.052;2023-02-10T04:53:59;98029.69;;;-1.50;100.00
56944;BME280;42848;42.524;12.052;2023-02-10T04:56:24;98037.91;;;-1.58;100.00
56944;BME280;42848;42.524;12.052;2023-02-10T04:58:50;98042.03;;;-1.62;100.00
56944;BME280;42848;42.524;12.052;2023-02-10T05:01:16;98031.56;;;-1.57;100.00
56944;BME280;42848;42.524;12.052;2023-02-10T05:03:41;98043.06;;;-1.63;100.00
56944;BME280;42848;42.524;12.052;2023-02-10T05:06:14;98052.47;;;-1.54;100.00
56944;BME280;42848;42.524;12.052;2023-02-10T05:08:40;98045.28;;;-1.60;100.00
56944;BME280;42848;42.524;12.052;2023-02-10T05:11:12;98042.63;;;-1.53;100.00
56944;BME280;42848;42.524;12.052;2023-02-10T05:13:39;98042.84;;;-1.55;100.00
56944;BME280;42848;42.524;12.052;2023-02-10T05:16:06;98049.22;;;-1.62;100.00
56944;BME280;42848;42.524;12.052;2023-02-10T05:18:33;98043.66;;;-1.61;100.00
56944;BME280;42848;42.524;12.052;2023-02-10T05:20:59;98045.06;;;-1.52;100.00
56944;BME280;42848;42.524;12.052;2023-02-10T05:23:26;98043.66;;;-1.61;100.00
56944;BME280;42848;42.524;12.052;2023-02-10T05:25:52;98033.59;;;-1.52;100.00
56944;BME280;42848;42.524;12.052;2023-02-10T05:28:18;98055.72;;;-1.52;100.00
56944;BME280;42848;42.524;12.052;2023-02-10T05:30:43;98040.78;;;-1.59;100.00
56944;BME280;42848;42.524;12.052;2023-02-10T05:33:09;98045.09;;;-1.58;100.00
56944;BME280;42848;42.524;12.052;2023-02-10T05:35:35;98047.97;;;-1.60;100.00
56944;BME280;42848;42.524;12.052;2023-02-10T05:38:01;98046.94;;;-1.65;100.00
56944;BME280;42848;42.524;12.052;2023-02-10T05:40:30;98042.63;;;-1.60;100.00
56944;BME280;42848;42.524;12.052;2023-02-10T05:42:56;98041.19;;;-1.56;100.00
56944;BME280;42848;42.524;12.052;2023-02-10T05:45:21;98049.56;;;-1.52;100.00
56944;BME280;42848;42.524;12.052;2023-02-10T05:47:48;98057.34;;;-1.51;100.00
56944;BME280;42848;42.524;12.052;2023-02-10T05:50:13;98053.50;;;-1.55;100.00
56944;BME280;42848;42.524;12.052;2023-02-10T05:52:39;98056.31;;;-1.50;100.00
56944;BME280;42848;42.524;12.052;2023-02-10T05:55:05;98049.16;;;-1.56;100.00
56944;BME280;42848;42.524;12.052;2023-02-10T05:57:31;98053.50;;;-1.55;100.00
56944;BME280;42848;42.524;12.052;2023-02-10T05:59:56;98045.50;;;-1.55;100.00
56944;BME280;42848;42.524;12.052;2023-02-10T06:02:22;98049.97;;;-1.49;100.00
56944;BME280;42848;42.524;12.052;2023-02-10T06:04:48;98049.16;;;-1.49;100.00
56944;BME280;42848;42.524;12.052;2023-02-10T06:07:15;98054.47;;;-1.49;100.00
56944;BME280;42848;42.524;12.052;2023-02-10T06:09:42;98054.25;;;-1.48;100.00
56944;BME280;42848;42.524;12.052;2023-02-10T06:12:08;98067.63;;;-1.54;100.00
56944;BME280;42848;42.524;12.052;2023-02-10T06:14:34;98070.28;;;-1.54;100.00
56944;BME280;42848;42.524;12.052;2023-02-10T06:17:01;98073.31;;;-1.51;100.00
56944;BME280;42848;42.524;12.052;2023-02-10T06:19:27;98064.75;;;-1.53;100.00
56944;BME280;42848;42.524;12.052;2023-02-10T06:21:53;98074.97;;;-1.50;100.00
56944;BME280;42848;42.524;12.052;2023-02-10T06:24:18;98076.19;;;-1.46;100.00
56944;BME280;42848;42.524;12.052;2023-02-10T06:26:44;98078.44;;;-1.42;100.00
56944;BME280;42848;42.524;12.052;2023-02-10T06:29:10;98074.16;;;-1.50;100.00
56944;BME280;42848;42.524;12.052;2023-02-10T06:31:36;98076.59;;;-1.42;100.00
56944;BME280;42848;42.524;12.052;2023-02-10T06:34:01;98083.53;;;-1.41;100.00
56944;BME280;42848;42.524;12.052;2023-02-10T06:36:27;98085.19;;;-1.47;100.00
56944;BME280;42848;42.524;12.052;2023-02-10T06:38:53;98090.31;;;-1.45;100.00
56944;BME280;42848;42.524;12.052;2023-02-10T06:41:18;98075.78;;;-1.49;100.00
56944;BME280;42848;42.524;12.052;2023-02-10T06:43:44;98079.47;;;-1.44;100.00
56944;BME280;42848;42.524;12.052;2023-02-10T06:46:10;98085.41;;;-1.48;100.00
56944;BME280;42848;42.524;12.052;2023-02-10T06:48:38;98098.09;;;-1.44;100.00
56944;BME280;42848;42.524;12.052;2023-02-10T06:51:04;98091.31;;;-1.39;100.00
56944;BME280;42848;42.524;12.052;2023-02-10T06:53:30;98097.06;;;-1.42;100.00
56944;BME280;42848;42.524;12.052;2023-02-10T06:55:56;98098.69;;;-1.41;100.00
56944;BME280;42848;42.524;12.052;2023-02-10T06:58:22;98102.16;;;-1.34;100.00
56944;BME280;42848;42.524;12.052;2023-02-10T07:00:48;98105.66;;;-1.34;100.00
56944;BME280;42848;42.524;12.052;2023-02-10T07:03:14;98112.81;;;-1.34;100.00
56944;BME280;42848;42.524;12.052;2023-02-10T07:05:40;98111.94;;;-1.22;100.00
56944;BME280;42848;42.524;12.052;2023-02-10T07:08:07;98119.13;;;-1.16;100.00
56944;BME280;42848;42.524;12.052;2023-02-10T07:10:32;98108.63;;;-1.10;100.00
56944;BME280;42848;42.524;12.052;2023-02-10T07:12:58;98105.94;;;-1.04;100.00
56944;BME280;42848;42.524;12.052;2023-02-10T07:15:24;98106.75;;;-0.97;100.00
56944;BME280;42848;42.524;12.052;2023-02-10T07:17:51;98105.94;;;-0.97;100.00
56944;BME280;42848;42.524;12.052;2023-02-10T07:20:20;98104.50;;;-1.00;100.00
56944;BME280;42848;42.524;12.052;2023-02-10T07:22:46;98104.66;;;-0.95;100.00
56944;BME280;42848;42.524;12.052;2023-02-10T07:25:13;98100.94;;;-0.87;100.00
56944;BME280;42848;42.524;12.052;2023-02-10T07:27:39;98100.13;;;-0.88;100.00
56944;BME280;42848;42.524;12.052;2023-02-10T07:30:05;98096.34;;;-0.73;100.00
56944;BME280;42848;42.524;12.052;2023-02-10T07:32:31;98113.22;;;-0.79;100.00
56944;BME280;42848;42.524;12.052;2023-02-10T07:34:57;98105.19;;;-0.73;100.00
56944;BME280;42848;42.524;12.052;2023-02-10T07:37:22;98116.47;;;-0.71;100.00
56944;BME280;42848;42.524;12.052;2023-02-10T07:39:48;98097.91;;;-0.59;100.00
56944;BME280;42848;42.524;12.052;2023-02-10T07:42:14;98097.91;;;-0.59;100.00
56944;BME280;42848;42.524;12.052;2023-02-10T07:44:39;98105.44;;;-0.49;100.00
56944;BME280;42848;42.524;12.052;2023-02-10T07:47:05;98105.44;;;-0.49;100.00
56944;BME280;42848;42.524;12.052;2023-02-10T07:49:31;98097.41;;;-0.43;100.00
56944;BME280;42848;42.524;12.052;2023-02-10T07:51:57;98094.75;;;-0.43;100.00
56944;BME280;42848;42.524;12.052;2023-02-10T07:54:23;98104.13;;;-0.34;100.00
56944;BME280;42848;42.524;12.052;2023-02-10T07:56:49;98098.53;;;-0.25;100.00
56944;BME280;42848;42.524;12.052;2023-02-10T07:59:15;98100.50;;;-0.14;100.00
56944;BME280;42848;42.524;12.052;2023-02-10T08:01:41;98113.97;;;-0.09;100.00
56944;BME280;42848;42.524;12.052;2023-02-10T08:04:12;98105.97;;;-0.09;100.00
56944;BME280;42848;42.524;12.052;2023-02-10T08:06:38;98099.34;;;0.00;100.00
56944;BME280;42848;42.524;12.052;2023-02-10T08:09:04;98095.78;;;0.06;100.00
56944;BME280;42848;42.524;12.052;2023-02-10T08:11:30;98097.88;;;0.04;100.00
56944;BME280;42848;42.524;12.052;2023-02-10T08:13:56;98094.94;;;0.12;100.00
56944;BME280;42848;42.524;12.052;2023-02-10T08:16:22;98104.75;;;0.18;100.00
56944;BME280;42848;42.524;12.052;2023-02-10T08:18:47;98101.63;;;0.21;100.00
56944;BME280;42848;42.524;12.052;2023-02-10T08:21:13;98120.09;;;0.23;100.00
56944;BME280;42848;42.524;12.052;2023-02-10T08:23:39;98120.47;;;0.26;100.00
56944;BME280;42848;42.524;12.052;2023-02-10T08:26:07;98120.81;;;0.37;100.00
56944;BME280;42848;42.524;12.052;2023-02-10T08:28:34;98108.19;;;0.44;100.00
56944;BME280;42848;42.524;12.052;2023-02-10T08:31:00;98115.16;;;0.45;100.00
56944;BME280;42848;42.524;12.052;2023-02-10T08:33:26;98115.03;;;0.58;100.00
56944;BME280;42848;42.524;12.052;2023-02-10T08:35:52;98115.78;;;0.65;100.00
56944;BME280;42848;42.524;12.052;2023-02-10T08:38:18;98113.63;;;0.74;100.00
56944;BME280;42848;42.524;12.052;2023-02-10T08:40:43;98133.22;;;0.68;100.00
56944;BME280;42848;42.524;12.052;2023-02-10T08:43:09;98123.50;;;0.73;100.00
56944;BME280;42848;42.524;12.052;2023-02-10T08:45:37;98129.00;;;0.78;99.60
56944;BME280;42848;42.524;12.052;2023-02-10T08:48:03;98131.59;;;0.85;100.00
56944;BME280;42848;42.524;12.052;2023-02-10T08:50:29;98131.38;;;0.87;98.92
56944;BME280;42848;42.524;12.052;2023-02-10T08:52:54;98133.16;;;0.93;98.79
56944;BME280;42848;42.524;12.052;2023-02-10T08:55:20;98141.38;;;0.91;97.64
56944;BME280;42848;42.524;12.052;2023-02-10T08:57:46;98149.63;;;0.90;97.79
56944;BME280;42848;42.524;12.052;2023-02-10T09:00:11;98142.59;;;0.95;98.31
56944;BME280;42848;42.524;12.052;2023-02-10T09:02:37;98158.56;;;1.02;97.77
56944;BME280;42848;42.524;12.052;2023-02-10T09:05:03;98155.50;;;0.98;97.69
56944;BME280;42848;42.524;12.052;2023-02-10T09:07:29;98152.28;;;1.08;97.92
56944;BME280;42848;42.524;12.052;2023-02-10T09:09:54;98161.75;;;1.10;97.55
56944;BME280;42848;42.524;12.052;2023-02-10T09:12:20;98155.59;;;1.10;96.95
56944;BME280;42848;42.524;12.052;2023-02-10T09:14:45;98164.94;;;1.19;97.52
56944;BME280;42848;42.524;12.052;2023-02-10T09:17:11;98169.53;;;1.12;95.67
56944;BME280;42848;42.524;12.052;2023-02-10T09:19:37;98162.41;;;1.24;96.03
56944;BME280;42848;42.524;12.052;2023-02-10T09:22:04;98157.31;;;1.34;95.37
56944;BME280;42848;42.524;12.052;2023-02-10T09:24:30;98161.28;;;1.32;94.16
56944;BME280;42848;42.524;12.052;2023-02-10T09:26:56;98156.06;;;1.37;94.79
56944;BME280;42848;42.524;12.052;2023-02-10T09:29:22;98160.06;;;1.46;94.08
56944;BME280;42848;42.524;12.052;2023-02-10T09:31:48;98161.84;;;1.52;95.07
56944;BME280;42848;42.524;12.052;2023-02-10T09:34:14;98174.91;;;1.60;93.64
56944;BME280;42848;42.524;12.052;2023-02-10T09:36:39;98161.97;;;1.57;92.65
56944;BME280;42848;42.524;12.052;2023-02-10T09:39:05;98168.59;;;1.55;91.12
56944;BME280;42848;42.524;12.052;2023-02-10T09:44:19;98181.56;;;1.69;89.61
56944;BME280;42848;42.524;12.052;2023-02-10T09:57:56;98190.63;;;1.98;87.39
56944;BME280;42848;42.524;12.052;2023-02-10T10:00:28;98185.75;;;1.95;85.94
56944;BME280;42848;42.524;12.052;2023-02-10T10:02:55;98184.94;;;1.95;85.13
56944;BME280;42848;42.524;12.052;2023-02-10T10:05:41;98191.44;;;1.99;85.16
56944;BME280;42848;42.524;12.052;2023-02-10T10:11:19;98211.88;;;2.12;83.13
56944;BME280;42848;42.524;12.052;2023-02-10T10:13:47;98195.81;;;2.12;82.00
56944;BME280;42848;42.524;12.052;2023-02-10T10:16:21;98199.31;;;2.24;82.02
56944;BME280;42848;42.524;12.052;2023-02-10T10:18:57;98198.06;;;2.38;81.15
56944;BME280;42848;42.524;12.052;2023-02-10T10:30:25;98181.28;;;2.54;78.94
56944;BME280;42848;42.524;12.052;2023-02-10T10:33:40;98176.06;;;2.48;76.77
56944;BME280;42848;42.524;12.052;2023-02-10T10:35:57;98176.53;;;2.56;75.94
56944;BME280;42848;42.524;12.052;2023-02-10T10:38:32;98183.28;;;2.71;75.83
56944;BME280;42848;42.524;12.052;2023-02-10T10:41:10;98175.25;;;2.71;72.88
56944;BME280;42848;42.524;12.052;2023-02-10T10:43:49;98168.72;;;2.78;69.58
56944;BME280;42848;42.524;12.052;2023-02-10T10:46:28;98172.44;;;2.89;71.85
56944;BME280;42848;42.524;12.052;2023-02-10T10:48:56;98171.13;;;3.03;71.19
56944;BME280;42848;42.524;12.052;2023-02-10T10:51:22;98174.41;;;3.05;69.50
56944;BME280;42848;42.524;12.052;2023-02-10T10:53:50;98183.03;;;3.07;68.83
56944;BME280;42848;42.524;12.052;2023-02-10T10:58:55;98165.63;;;3.22;64.58
56944;BME280;42848;42.524;12.052;2023-02-10T11:01:34;98166.19;;;3.24;65.84
56944;BME280;42848;42.524;12.052;2023-02-10T11:04:15;98156.97;;;3.20;63.08
56944;BME280;42848;42.524;12.052;2023-02-10T11:06:43;98160.09;;;3.40;63.02
56944;BME280;42848;42.524;12.052;2023-02-10T11:09:36;98162.09;;;3.33;61.39
56944;BME280;42848;42.524;12.052;2023-02-10T11:12:20;98155.22;;;3.25;61.31
56944;BME280;42848;42.524;12.052;2023-02-10T11:14:48;98154.16;;;3.26;59.04
56944;BME280;42848;42.524;12.052;2023-02-10T11:17:35;98155.88;;;3.44;59.99
56944;BME280;42848;42.524;12.052;2023-02-10T11:20:22;98159.81;;;3.53;60.62
56944;BME280;42848;42.524;12.052;2023-02-10T11:22:56;98148.97;;;3.48;58.61
56944;BME280;42848;42.524;12.052;2023-02-10T11:25:34;98142.25;;;3.62;57.91
56944;BME280;42848;42.524;12.052;2023-02-10T11:28:01;98143.19;;;3.68;57.10
56944;BME280;42848;42.524;12.052;2023-02-10T11:30:31;98133.75;;;3.82;56.25
56944;BME280;42848;42.524;12.052;2023-02-10T11:32:58;98136.78;;;3.86;57.25
56944;BME280;42848;42.524;12.052;2023-02-10T11:35:25;98124.19;;;3.75;55.24
56944;BME280;42848;42.524;12.052;2023-02-10T11:38:07;98131.56;;;3.79;55.58
56944;BME280;42848;42.524;12.052;2023-02-10T11:41:03;98137.41;;;3.76;53.86
56944;BME280;42848;42.524;12.052;2023-02-10T11:43:40;98119.44;;;3.77;52.89
56944;BME280;42848;42.524;12.052;2023-02-10T11:46:07;98113.34;;;3.98;55.02
56944;BME280;42848;42.524;12.052;2023-02-10T11:48:58;98111.72;;;3.97;53.46
56944;BME280;42848;42.524;12.052;2023-02-10T11:51:25;98114.97;;;3.99;51.96
56944;BME280;42848;42.524;12.052;2023-02-10T11:53:52;98118.22;;;4.01;52.87
56944;BME280;42848;42.524;12.052;2023-02-10T11:59:27;98123.13;;;4.21;52.45
56944;BME280;42848;42.524;12.052;2023-02-10T12:02:01;98123.28;;;4.14;50.55
56944;BME280;42848;42.524;12.052;2023-02-10T12:09:54;98096.00;;;4.22;51.44
56944;BME280;42848;42.524;12.052;2023-02-10T12:12:30;98108.44;;;4.28;51.64
56944;BME280;42848;42.524;12.052;2023-02-10T12:26:33;98085.47;;;4.54;48.51
56944;BME280;42848;42.524;12.052;2023-02-10T12:31:57;98095.22;;;4.61;49.79
56944;BME280;42848;42.524;12.052;2023-02-10T12:37:54;98089.88;;;4.82;48.93
56944;BME280;42848;42.524;12.052;2023-02-10T12:53:44;98074.91;;;4.92;48.30
56944;BME280;42848;42.524;12.052;2023-02-10T12:56:17;98087.69;;;5.01;47.78
56944;BME280;42848;42.524;12.052;2023-02-10T12:58:53;98071.38;;;4.86;47.09
56944;BME280;42848;42.524;12.052;2023-02-10T13:01:35;98074.56;;;5.05;48.35
56944;BME280;42848;42.524;12.052;2023-02-10T13:04:21;98071.75;;;4.95;47.18
56944;BME280;42848;42.524;12.052;2023-02-10T13:09:39;98079.31;;;4.98;47.64
56944;BME280;42848;42.524;12.052;2023-02-10T13:14:40;98068.59;;;5.03;48.12
56944;BME280;42848;42.524;12.052;2023-02-10T13:17:08;98078.75;;;4.96;47.09
56944;BME280;42848;42.524;12.052;2023-02-10T13:19:57;98066.97;;;5.02;47.33
56944;BME280;42848;42.524;12.052;2023-02-10T13:25:30;98067.03;;;5.07;47.07
56944;BME280;42848;42.524;12.052;2023-02-10T13:30:47;98067.22;;;5.22;47.31
56944;BME280;42848;42.524;12.052;2023-02-10T13:33:35;98066.09;;;5.18;46.65
56944;BME280;42848;42.524;12.052;2023-02-10T13:36:14;98061.72;;;5.12;46.88
56944;BME280;42848;42.524;12.052;2023-02-10T13:38:41;98065.03;;;5.19;46.20
56944;BME280;42848;42.524;12.052;2023-02-10T13:41:31;98050.06;;;5.28;46.56
56944;BME280;42848;42.524;12.052;2023-02-10T13:44:31;98058.28;;;5.43;47.18
56944;BME280;42848;42.524;12.052;2023-02-10T13:47:33;98050.75;;;5.40;46.94
56944;BME280;42848;42.524;12.052;2023-02-10T13:52:53;98048.69;;;5.53;46.46
56944;BME280;42848;42.524;12.052;2023-02-10T13:58:13;98064.06;;;5.57;45.64
56944;BME280;42848;42.524;12.052;2023-02-10T14:00:46;98066.47;;;5.54;45.47
56944;BME280;42848;42.524;12.052;2023-02-10T14:06:00;98068.41;;;5.58;45.69
56944;BME280;42848;42.524;12.052;2023-02-10T14:08:34;98065.25;;;5.66;45.98
56944;BME280;42848;42.524;12.052;2023-02-10T14:13:39;98070.88;;;5.65;45.36
56944;BME280;42848;42.524;12.052;2023-02-10T14:16:30;98065.75;;;5.63;44.80
56944;BME280;42848;42.524;12.052;2023-02-10T14:19:04;98064.75;;;5.69;45.21
56944;BME280;42848;42.524;12.052;2023-02-10T14:21:38;98061.28;;;5.74;45.28
56944;BME280;42848;42.524;12.052;2023-02-10T14:24:12;98053.81;;;5.81;45.10
56944;BME280;42848;42.524;12.052;2023-02-10T14:26:44;98052.25;;;5.85;44.61
56944;BME280;42848;42.524;12.052;2023-02-10T14:29:17;98059.84;;;5.93;44.14
56944;BME280;42848;42.524;12.052;2023-02-10T14:31:46;98064.22;;;5.99;44.64
56944;BME280;42848;42.524;12.052;2023-02-10T14:37:20;98075.91;;;5.83;43.27
56944;BME280;42848;42.524;12.052;2023-02-10T14:40:01;98068.91;;;5.82;43.60
56944;BME280;42848;42.524;12.052;2023-02-10T14:42:29;98076.44;;;5.80;43.24
56944;BME280;42848;42.524;12.052;2023-02-10T14:44:57;98060.81;;;5.82;43.42